createdAt,value
2018-04-18T00:01:45.611Z,102376.54
2018-04-18T00:04:13.871Z,102380.77
2018-04-18T00:06:42.908Z,102375.84
2018-04-18T00:09:11.180Z,102381.63
2018-04-18T00:11:40.240Z,102377.70
2018-04-18T00:14:08.523Z,102380.33
2018-04-18T00:16:36.801Z,102380.53
2018-04-18T00:19:05.077Z,102375.44
2018-04-18T00:21:33.337Z,102384.58
2018-04-18T00:24:02.376Z,102381.61
2018-04-18T00:26:30.664Z,102383.47
2018-04-18T00:28:58.923Z,102389.19
2018-04-18T00:31:27.970Z,102391.96
2018-04-18T00:33:56.220Z,102395.94
2018-04-18T00:36:25.248Z,102396.37
2018-04-18T00:38:53.541Z,102396.81
2018-04-18T00:41:21.813Z,102395.94
2018-04-18T00:43:50.832Z,102399.92
2018-04-18T00:46:19.111Z,102404.33
2018-04-18T00:48:48.167Z,102402.73
2018-04-18T00:51:16.421Z,102404.88
2018-04-18T00:53:44.706Z,102411.57
2018-04-18T00:56:13.736Z,102410.84
2018-04-18T00:58:42.004Z,102407.83
2018-04-18T01:01:11.053Z,102413.02
2018-04-18T01:03:39.314Z,102413.16
2018-04-18T01:06:07.564Z,102417.22
2018-04-18T01:08:35.839Z,102411.67
2018-04-18T01:11:04.111Z,102418.39
2018-04-18T01:13:32.393Z,102423.84
2018-04-18T01:16:00.668Z,102425.27
2018-04-18T01:18:28.925Z,102424.28
2018-04-18T01:20:57.961Z,102429.52
2018-04-18T01:23:26.233Z,102432.48
2018-04-18T01:25:55.272Z,102429.83
2018-04-18T01:28:23.528Z,102426.81
2018-04-18T01:30:52.579Z,102427.77
2018-04-18T01:33:20.852Z,102431.62
2018-04-18T01:35:49.125Z,102434.87
2018-04-18T01:38:18.178Z,102431.78
2018-04-18T01:40:46.429Z,102432.25
2018-04-18T01:43:14.729Z,102429.52
2018-04-18T01:45:42.999Z,102431.81
2018-04-18T01:48:12.025Z,102433.92
2018-04-18T01:50:40.305Z,102439.67
2018-04-18T01:53:09.367Z,102436.14
2018-04-18T01:55:37.643Z,102442.80
2018-04-18T01:58:05.903Z,102442.45
2018-04-18T02:00:34.198Z,102448.08
2018-04-18T02:03:02.450Z,102448.00
2018-04-18T02:05:30.730Z,102451.21
2018-04-18T02:07:59.016Z,102446.89
2018-04-18T02:10:27.293Z,102446.38
2018-04-18T02:12:55.561Z,102454.30
2018-04-18T02:15:23.824Z,102453.83
2018-04-18T02:17:52.090Z,102459.98
2018-04-18T02:20:20.361Z,102456.45
2018-04-18T02:22:48.696Z,102455.61
2018-04-18T02:25:16.978Z,102464.34
2018-04-18T02:27:46.010Z,102463.91
2018-04-18T02:30:14.264Z,102463.44
2018-04-18T02:32:43.303Z,102466.89
2018-04-18T02:35:11.562Z,102468.70
2018-04-18T02:37:40.604Z,102472.16
2018-04-18T02:40:08.872Z,102480.52
2018-04-18T02:42:37.914Z,102484.02
2018-04-18T02:45:06.201Z,102483.14
2018-04-18T02:47:34.463Z,102486.20
2018-04-18T02:50:03.495Z,102486.60
2018-04-18T02:52:31.763Z,102490.56
2018-04-18T02:55:00.788Z,102495.44
2018-04-18T02:57:29.041Z,102493.33
2018-04-18T02:59:58.090Z,102499.06
2018-04-18T03:02:26.349Z,102504.27
2018-04-18T03:04:55.364Z,102497.83
2018-04-18T03:07:25.364Z,102501.31
2018-04-18T03:09:53.629Z,102506.14
2018-04-18T03:12:21.888Z,102506.65
2018-04-18T03:14:50.164Z,102506.22
2018-04-18T03:17:19.206Z,102510.23
2018-04-18T03:19:47.489Z,102509.83
2018-04-18T03:22:15.762Z,102515.09
2018-04-18T03:24:44.016Z,102518.69
2018-04-18T03:27:12.345Z,102514.31
2018-04-18T03:29:40.567Z,102516.03
2018-04-18T03:32:08.861Z,102522.26
2018-04-18T03:34:37.115Z,102521.84
2018-04-18T03:37:05.407Z,102524.47
2018-04-18T03:39:34.425Z,102523.19
2018-04-18T03:42:02.696Z,102524.96
2018-04-18T03:44:30.985Z,102525.80
2018-04-18T03:46:59.247Z,102531.06
2018-04-18T03:49:27.496Z,102529.81
2018-04-18T03:51:55.782Z,102536.73
2018-04-18T03:54:24.048Z,102530.66
2018-04-18T03:56:52.308Z,102535.02
2018-04-18T03:59:20.601Z,102532.89
2018-04-18T04:01:48.865Z,102534.98
2018-04-18T04:04:17.124Z,102531.91
2018-04-18T04:06:45.408Z,102534.52
2018-04-18T04:09:13.677Z,102537.55
2018-04-18T04:11:42.714Z,102534.11
2018-04-18T04:14:10.987Z,102538.50
2018-04-18T04:16:56.816Z,102539.41
2018-04-18T04:19:42.656Z,102543.38
2018-04-18T04:22:28.565Z,102546.89
2018-04-18T04:24:56.850Z,102548.23
2018-04-18T04:27:25.113Z,102549.59
2018-04-18T04:29:53.367Z,102553.95
2018-04-18T04:32:21.635Z,102553.89
2018-04-18T04:34:49.910Z,102559.59
2018-04-18T04:37:18.156Z,102557.44
2018-04-18T04:39:46.453Z,102551.36
2018-04-18T04:42:14.714Z,102554.41
2018-04-18T04:44:43.735Z,102561.41
2018-04-18T04:47:12.004Z,102563.20
2018-04-18T04:49:41.044Z,102566.72
2018-04-18T04:52:09.310Z,102569.77
2018-04-18T04:54:38.368Z,102574.54
2018-04-18T04:57:06.644Z,102570.13
2018-04-18T04:59:34.923Z,102570.62
2018-04-18T05:02:03.227Z,102577.59
2018-04-18T05:04:31.487Z,102589.66
2018-04-18T05:06:59.755Z,102585.30
2018-04-18T05:09:28.808Z,102586.59
2018-04-18T05:11:57.080Z,102588.77
2018-04-18T05:14:25.337Z,102596.16
2018-04-18T05:16:53.612Z,102591.69
2018-04-18T05:19:22.682Z,102598.18
2018-04-18T05:21:50.935Z,102592.48
2018-04-18T05:24:19.975Z,102598.45
2018-04-18T05:26:48.271Z,102604.33
2018-04-18T05:29:16.530Z,102601.53
2018-04-18T05:31:45.564Z,102610.13
2018-04-18T05:34:13.866Z,102612.05
2018-04-18T05:36:42.129Z,102613.33
2018-04-18T05:39:10.400Z,102615.24
2018-04-18T05:41:39.446Z,102616.16
2018-04-18T05:44:08.533Z,102621.88
2018-04-18T05:46:36.802Z,102622.27
2018-04-18T05:49:05.822Z,102624.62
2018-04-18T05:51:34.836Z,102624.88
2018-04-18T05:54:03.112Z,102626.87
2018-04-18T05:56:32.167Z,102621.21
2018-04-18T05:59:00.426Z,102617.97
2018-04-18T06:01:28.725Z,102621.38
2018-04-18T06:03:56.991Z,102625.81
2018-04-18T06:06:26.019Z,102628.98
2018-04-18T06:08:54.281Z,102629.11
2018-04-18T06:11:23.321Z,102624.55
2018-04-18T06:13:51.571Z,102629.45
2018-04-18T06:16:20.630Z,102632.53
2018-04-18T06:18:48.892Z,102635.60
2018-04-18T06:21:17.151Z,102641.48
2018-04-18T06:23:45.458Z,102642.69
2018-04-18T06:26:14.494Z,102652.39
2018-04-18T06:28:42.755Z,102649.01
2018-04-18T06:31:11.788Z,102649.69
2018-04-18T06:33:40.063Z,102651.14
2018-04-18T06:36:09.080Z,102651.47
2018-04-18T06:38:37.398Z,102649.63
2018-04-18T06:41:05.659Z,102647.05
2018-04-18T06:43:35.653Z,102652.34
2018-04-18T06:46:03.969Z,102655.50
2018-04-18T06:48:33.171Z,102658.26
2018-04-18T06:51:02.181Z,102660.28
2018-04-18T06:53:31.238Z,102664.58
2018-04-18T06:55:59.548Z,102665.36
2018-04-18T06:58:27.803Z,102663.09
2018-04-18T07:00:56.072Z,102662.42
2018-04-18T07:03:24.356Z,102666.72
2018-04-18T07:05:52.605Z,102672.45
2018-04-18T07:08:20.915Z,102668.77
2018-04-18T07:10:49.208Z,102665.06
2018-04-18T07:13:17.465Z,102669.14
2018-04-18T07:15:45.754Z,102674.20
2018-04-18T07:18:14.019Z,102677.53
2018-04-18T07:20:42.274Z,102676.83
2018-04-18T07:23:11.310Z,102679.61
2018-04-18T07:25:39.604Z,102678.00
2018-04-18T07:28:07.879Z,102682.30
2018-04-18T07:30:36.917Z,102674.37
2018-04-18T07:33:05.175Z,102673.27
2018-04-18T07:35:34.215Z,102670.08
2018-04-18T07:38:02.501Z,102674.73
2018-04-18T07:40:30.760Z,102667.26
2018-04-18T07:42:59.094Z,102673.20
2018-04-18T07:45:27.367Z,102672.78
2018-04-18T07:47:55.630Z,102671.91
2018-04-18T07:50:24.646Z,102679.61
2018-04-18T07:52:53.675Z,102670.83
2018-04-18T07:55:21.947Z,102679.68
2018-04-18T07:57:50.211Z,102677.81
2018-04-18T08:00:19.247Z,102671.02
2018-04-18T08:02:47.515Z,102679.83
2018-04-18T08:05:16.527Z,102670.77
2018-04-18T08:07:45.576Z,102680.02
2018-04-18T08:10:13.837Z,102678.22
2018-04-18T08:12:42.100Z,102681.48
2018-04-18T08:15:10.378Z,102680.24
2018-04-18T08:17:38.639Z,102678.84
2018-04-18T08:20:06.887Z,102678.81
2018-04-18T08:22:35.205Z,102679.70
2018-04-18T08:25:03.464Z,102680.78
2018-04-18T08:27:31.848Z,102676.27
2018-04-18T08:30:00.889Z,102680.88
2018-04-18T08:32:29.152Z,102671.55
2018-04-18T08:34:58.171Z,102675.96
2018-04-18T08:37:27.203Z,102672.73
2018-04-18T08:39:55.467Z,102679.67
2018-04-18T08:42:23.715Z,102684.05
2018-04-18T08:44:51.998Z,102674.51
2018-04-18T08:47:20.273Z,102673.96
2018-04-18T08:49:48.530Z,102672.31
2018-04-18T08:52:16.804Z,102670.38
2018-04-18T08:54:45.825Z,102672.77
2018-04-18T08:57:14.087Z,102671.34
2018-04-18T08:59:42.368Z,102664.14
2018-04-18T09:02:10.651Z,102669.49
2018-04-18T09:04:38.888Z,102664.56
2018-04-18T09:07:07.179Z,102660.39
2018-04-18T09:09:35.452Z,102664.50
2018-04-18T09:12:04.478Z,102657.64
2018-04-18T09:14:32.788Z,102657.82
2018-04-18T09:17:01.052Z,102675.77
2018-04-18T09:19:29.307Z,102659.70
2018-04-18T09:21:57.578Z,102651.94
2018-04-18T09:24:25.845Z,102659.98
2018-04-18T09:26:54.105Z,102649.27
2018-04-18T09:29:22.376Z,102649.84
2018-04-18T09:31:51.392Z,102655.63
2018-04-18T09:34:20.430Z,102656.09
2018-04-18T09:36:48.710Z,102652.64
2018-04-18T09:39:16.968Z,102648.86
2018-04-18T09:41:45.996Z,102650.56
2018-04-18T09:44:15.030Z,102652.77
2018-04-18T09:46:43.294Z,102643.32
2018-04-18T09:49:12.337Z,102650.47
2018-04-18T09:51:40.630Z,102646.70
2018-04-18T09:54:09.651Z,102648.79
2018-04-18T09:56:37.908Z,102643.51
2018-04-18T09:59:06.183Z,102645.09
2018-04-18T10:01:39.845Z,102640.59
2018-04-18T10:04:09.903Z,102643.13
2018-04-18T10:06:38.929Z,102644.91
2018-04-18T10:09:07.216Z,102648.72
2018-04-18T10:11:36.243Z,102642.38
2018-04-18T10:14:04.538Z,102647.34
2018-04-18T10:16:32.898Z,102647.56
2018-04-18T10:19:01.940Z,102645.62
2018-04-18T10:21:30.195Z,102648.72
2018-04-18T10:23:59.231Z,102640.88
2018-04-18T10:26:27.521Z,102639.81
2018-04-18T10:28:55.794Z,102636.47
2018-04-18T10:31:24.807Z,102636.97
2018-04-18T10:33:53.085Z,102632.61
2018-04-18T10:36:22.107Z,102631.23
2018-04-18T10:38:50.360Z,102628.30
2018-04-18T10:41:18.635Z,102624.86
2018-04-18T10:43:46.907Z,102633.91
2018-04-18T10:46:15.167Z,102622.87
2018-04-18T10:48:43.434Z,102621.08
2018-04-18T10:51:12.531Z,102623.11
2018-04-18T10:53:40.793Z,102622.39
2018-04-18T10:56:09.071Z,102617.73
2018-04-18T10:58:38.122Z,102621.83
2018-04-18T11:01:06.344Z,102619.94
2018-04-18T11:03:34.637Z,102623.33
2018-04-18T11:06:02.906Z,102615.46
2018-04-18T11:08:31.184Z,102618.73
2018-04-18T11:11:00.247Z,102614.39
2018-04-18T11:13:28.519Z,102610.34
2018-04-18T11:15:56.783Z,102600.99
2018-04-18T11:18:25.830Z,102608.34
2018-04-18T11:20:54.080Z,102595.72
2018-04-18T11:23:23.112Z,102598.84
2018-04-18T11:25:51.384Z,102595.30
2018-04-18T11:28:20.399Z,102593.70
2018-04-18T11:30:48.659Z,102593.13
2018-04-18T11:33:17.707Z,102592.34
2018-04-18T11:35:45.987Z,102590.80
2018-04-18T11:38:14.253Z,102587.50
2018-04-18T11:40:42.527Z,102590.94
2018-04-18T11:43:10.780Z,102584.99
2018-04-18T11:45:39.069Z,102580.13
2018-04-18T11:48:07.347Z,102582.30
2018-04-18T11:50:35.608Z,102577.04
2018-04-18T11:53:03.904Z,102571.80
2018-04-18T11:55:32.941Z,102574.50
2018-04-18T11:58:01.233Z,102563.77
2018-04-18T12:00:29.496Z,102569.59
2018-04-18T12:02:57.780Z,102567.28
2018-04-18T12:05:26.814Z,102567.46
2018-04-18T12:07:55.068Z,102560.78
2018-04-18T12:10:24.126Z,102563.37
2018-04-18T12:12:52.410Z,102565.39
2018-04-18T12:15:20.659Z,102558.95
2018-04-18T12:17:49.708Z,102565.26
2018-04-18T12:20:17.973Z,102567.80
2018-04-18T12:22:46.579Z,102564.28
2018-04-18T12:25:14.918Z,102560.02
2018-04-18T12:27:43.187Z,102560.70
2018-04-18T12:30:11.458Z,102555.33
2018-04-18T12:32:39.737Z,102555.43
2018-04-18T12:35:08.032Z,102560.70
2018-04-18T12:37:36.311Z,102552.92
2018-04-18T12:40:05.362Z,102549.73
2018-04-18T12:42:33.647Z,102552.69
2018-04-18T12:45:01.936Z,102549.39
2018-04-18T12:47:30.233Z,102548.55
2018-04-18T12:49:58.567Z,102541.17
2018-04-18T12:52:26.859Z,102546.21
2018-04-18T12:54:55.900Z,102540.92
2018-04-18T12:57:24.156Z,102535.46
2018-04-18T12:59:53.171Z,102541.51
2018-04-18T13:02:21.452Z,102529.77
2018-04-18T13:04:49.723Z,102528.81
2018-04-18T13:07:17.991Z,102523.84
2018-04-18T13:09:46.260Z,102522.59
2018-04-18T13:12:14.519Z,102518.34
2018-04-18T13:14:43.539Z,102517.97
2018-04-18T13:17:11.824Z,102520.67
2018-04-18T13:19:40.081Z,102513.76
2018-04-18T13:22:08.349Z,102516.61
2018-04-18T13:24:36.618Z,102498.65
2018-04-18T13:27:04.879Z,102502.78
2018-04-18T13:29:33.146Z,102504.79
2018-04-18T13:32:01.427Z,102504.63
2018-04-18T13:34:29.676Z,102500.76
2018-04-18T13:36:57.936Z,102497.39
2018-04-18T13:39:26.204Z,102504.19
2018-04-18T13:41:55.241Z,102490.63
2018-04-18T13:44:23.498Z,102486.36
2018-04-18T13:46:51.793Z,102482.00
2018-04-18T13:49:20.050Z,102479.08
2018-04-18T13:51:48.303Z,102482.52
2018-04-18T13:54:16.593Z,102480.23
2018-04-18T13:56:44.859Z,102476.97
2018-04-18T13:59:13.890Z,102477.19
2018-04-18T14:01:42.155Z,102471.97
2018-04-18T14:04:11.177Z,102464.84
2018-04-18T14:06:39.455Z,102475.34
2018-04-18T14:09:08.511Z,102472.85
2018-04-18T14:11:36.761Z,102464.09
2018-04-18T14:14:05.047Z,102464.16
2018-04-18T14:16:34.115Z,102460.71
2018-04-18T14:19:03.143Z,102462.07
2018-04-18T14:21:31.408Z,102462.59
2018-04-18T14:23:59.684Z,102453.69
2018-04-18T14:26:27.950Z,102449.45
2018-04-18T14:28:56.213Z,102451.47
2018-04-18T14:31:25.264Z,102448.27
2018-04-18T14:33:53.534Z,102448.08
2018-04-18T14:36:22.547Z,102444.36
2018-04-18T14:38:50.844Z,102442.17
2018-04-18T14:41:19.106Z,102441.83
2018-04-18T14:43:48.129Z,102437.98
2018-04-18T14:46:16.388Z,102436.40
2018-04-18T14:48:44.725Z,102427.70
2018-04-18T14:51:12.967Z,102429.54
2018-04-18T14:53:41.251Z,102426.45
2018-04-18T14:56:09.506Z,102415.44
2018-04-18T14:58:37.756Z,102420.61
2018-04-18T15:01:06.822Z,102415.47
2018-04-18T15:03:35.095Z,102410.73
2018-04-18T15:06:03.368Z,102413.94
2018-04-18T15:08:31.668Z,102412.50
2018-04-18T15:10:59.921Z,102406.66
2018-04-18T15:13:28.947Z,102406.13
2018-04-18T15:15:57.207Z,102406.27
2018-04-18T15:18:25.477Z,102402.98
2018-04-18T15:20:53.714Z,102398.19
2018-04-18T15:23:21.986Z,102396.92
2018-04-18T15:25:51.005Z,102401.34
2018-04-18T15:28:20.081Z,102403.24
2018-04-18T15:30:48.395Z,102394.55
2018-04-18T15:33:17.424Z,102389.92
2018-04-18T15:35:45.812Z,102387.88
2018-04-18T15:38:14.838Z,102382.44
2018-04-18T15:40:43.088Z,102387.52
2018-04-18T15:43:12.113Z,102385.07
2018-04-18T15:45:40.380Z,102394.59
2018-04-18T15:48:09.727Z,102389.72
2018-04-18T15:50:37.976Z,102387.41
2018-04-18T15:53:06.270Z,102378.39
2018-04-18T15:55:34.557Z,102372.87
2018-04-18T15:58:02.986Z,102374.33
2018-04-18T16:00:31.384Z,102373.09
2018-04-18T16:02:59.639Z,102367.53
2018-04-18T16:05:27.893Z,102366.31
2018-04-18T16:07:56.174Z,102368.97
2018-04-18T16:10:24.435Z,102365.00
2018-04-18T16:12:53.391Z,102365.73
2018-04-18T16:15:21.694Z,102360.67
2018-04-18T16:17:49.960Z,102367.86
2018-04-18T16:20:18.211Z,102359.80
2018-04-18T16:22:46.475Z,102356.13
2018-04-18T16:25:14.777Z,102353.80
2018-04-18T16:27:43.789Z,102359.88
2018-04-18T16:30:30.357Z,102358.05
2018-04-18T16:32:58.631Z,102360.07
2018-04-18T16:35:26.892Z,102359.84
2018-04-18T16:37:55.929Z,102350.80
2018-04-18T16:40:24.197Z,102351.52
2018-04-18T16:42:52.443Z,102348.99
2018-04-18T16:45:20.708Z,102354.81
2018-04-18T16:47:48.967Z,102349.20
2018-04-18T16:50:17.225Z,102350.49
2018-04-18T16:52:45.483Z,102348.34
2018-04-18T16:55:13.769Z,102341.87
2018-04-18T16:57:42.028Z,102338.70
2018-04-18T17:00:10.323Z,102339.05
2018-04-18T17:02:38.619Z,102339.18
2018-04-18T17:05:06.849Z,102334.78
2018-04-18T17:07:36.086Z,102340.27
2018-04-18T17:10:04.429Z,102337.92
2018-04-18T17:12:32.738Z,102339.25
2018-04-18T17:15:00.971Z,102330.77
2018-04-18T17:17:30.006Z,102327.84
2018-04-18T17:19:58.247Z,102334.31
2018-04-18T17:22:27.289Z,102330.16
2018-04-18T17:24:55.535Z,102333.89
2018-04-18T17:27:23.792Z,102335.55
2018-04-18T17:29:52.078Z,102333.56
2018-04-18T17:32:20.322Z,102333.98
2018-04-18T17:34:49.352Z,102329.23
2018-04-18T17:37:17.627Z,102323.80
2018-04-18T17:39:46.646Z,102319.36
2018-04-18T17:42:14.918Z,102320.55
2018-04-18T17:44:43.940Z,102318.83
2018-04-18T17:47:12.204Z,102324.25
2018-04-18T17:49:40.453Z,102326.61
2018-04-18T17:52:08.728Z,102322.61
2018-04-18T17:54:37.005Z,102324.02
2018-04-18T17:57:05.263Z,102324.02
2018-04-18T17:59:34.333Z,102324.29
2018-04-18T18:02:02.640Z,102326.67
2018-04-18T18:04:30.940Z,102325.96
2018-04-18T18:06:59.200Z,102318.89
2018-04-18T18:09:27.451Z,102325.48
2018-04-18T18:11:56.528Z,102324.42
2018-04-18T18:14:24.787Z,102322.29
2018-04-18T18:16:53.052Z,102327.16
2018-04-18T18:19:21.311Z,102329.00
2018-04-18T18:21:50.344Z,102326.34
2018-04-18T18:24:18.608Z,102317.70
2018-04-18T18:26:47.632Z,102322.34
2018-04-18T18:29:16.683Z,102330.33
2018-04-18T18:31:44.928Z,102324.11
2018-04-18T18:34:13.955Z,102324.48
2018-04-18T18:36:42.212Z,102325.86
2018-04-18T18:39:11.231Z,102326.72
2018-04-18T18:41:40.248Z,102328.73
2018-04-18T18:44:08.511Z,102329.58
2018-04-18T18:46:36.775Z,102331.29
2018-04-18T18:49:05.064Z,102338.92
2018-04-18T18:51:33.356Z,102340.26
2018-04-18T18:54:01.630Z,102346.58
2018-04-18T18:56:29.879Z,102344.16
2018-04-18T18:58:58.937Z,102349.21
2018-04-18T19:01:27.214Z,102358.09
2018-04-18T19:03:55.485Z,102351.52
2018-04-18T19:06:23.773Z,102355.94
2018-04-18T19:08:52.049Z,102358.09
2018-04-18T19:11:21.088Z,102362.52
2018-04-18T19:13:49.360Z,102363.08
2018-04-18T19:16:18.387Z,102362.37
2018-04-18T19:18:46.912Z,102361.98
2018-04-18T19:21:15.175Z,102364.78
2018-04-18T19:23:43.532Z,102377.64
2018-04-18T19:26:12.558Z,102377.64
2018-04-18T19:28:40.919Z,102377.78
2018-04-18T19:31:09.099Z,102375.11
2018-04-18T19:33:37.387Z,102377.14
2018-04-18T19:36:05.650Z,102381.02
2018-04-18T19:38:34.721Z,102382.36
2018-04-18T19:41:02.997Z,102384.80
2018-04-18T19:43:31.286Z,102380.45
2018-04-18T19:46:00.307Z,102385.45
2018-04-18T19:48:28.582Z,102382.42
2018-04-18T19:50:57.613Z,102379.37
2018-04-18T19:53:25.886Z,102381.20
2018-04-18T19:55:54.138Z,102377.79
2018-04-18T19:58:22.415Z,102382.30
2018-04-18T20:00:50.676Z,102394.60
2018-04-18T20:03:18.931Z,102390.41
2018-04-18T20:05:47.985Z,102387.67
2018-04-18T20:08:16.248Z,102389.23
2018-04-18T20:10:44.511Z,102388.46
2018-04-18T20:13:13.556Z,102387.52
2018-04-18T20:15:41.821Z,102390.44
2018-04-18T20:18:10.854Z,102390.59
2018-04-18T20:20:39.123Z,102389.27
2018-04-18T20:23:07.388Z,102391.56
2018-04-18T20:25:35.807Z,102387.70
2018-04-18T20:28:05.001Z,102388.25
2018-04-18T20:30:33.290Z,102387.30
2018-04-18T20:33:01.635Z,102388.17
2018-04-18T20:35:29.904Z,102388.20
2018-04-18T20:37:58.186Z,102385.52
2018-04-18T20:40:26.439Z,102389.09
2018-04-18T20:42:58.202Z,102396.50
2018-04-18T20:45:26.464Z,102392.05
2018-04-18T20:47:54.721Z,102395.38
2018-04-18T20:50:23.000Z,102395.68
2018-04-18T20:52:52.027Z,102395.66
2018-04-18T20:55:20.536Z,102390.27
2018-04-18T20:57:48.819Z,102391.16
2018-04-18T21:00:17.086Z,102394.88
2018-04-18T21:02:46.100Z,102396.08
2018-04-18T21:05:14.405Z,102396.50
2018-04-18T21:07:42.652Z,102392.61
2018-04-18T21:10:11.754Z,102389.96
2018-04-18T21:12:40.042Z,102396.73
2018-04-18T21:15:08.314Z,102394.81
2018-04-18T21:17:36.572Z,102388.08
2018-04-18T21:20:04.863Z,102386.86
2018-04-18T21:22:33.338Z,102391.06
2018-04-18T21:25:04.072Z,102387.85
2018-04-18T21:27:32.388Z,102395.25
2018-04-18T21:30:00.652Z,102391.45
2018-04-18T21:32:29.734Z,102395.63
2018-04-18T21:34:58.008Z,102394.14
2018-04-18T21:37:33.727Z,102390.09
2018-04-18T21:40:02.073Z,102390.73
2018-04-18T21:42:30.533Z,102391.91
2018-04-18T21:44:58.782Z,102389.20
2018-04-18T21:47:27.047Z,102391.00
2018-04-18T21:49:55.295Z,102386.97
2018-04-18T21:52:23.551Z,102391.74
2018-04-18T21:54:51.836Z,102394.88
2018-04-18T21:57:20.129Z,102394.47
2018-04-18T22:09:05.339Z,102398.22
2018-04-18T22:12:00.504Z,102401.45
2018-04-18T22:14:39.383Z,102396.50
2018-04-18T22:17:07.664Z,102401.41
2018-04-18T22:19:35.913Z,102401.09
2018-04-18T22:22:04.171Z,102400.11
2018-04-18T22:24:33.231Z,102398.88
2018-04-18T22:27:01.552Z,102400.02
2018-04-18T22:29:29.839Z,102400.88
2018-04-18T22:31:58.120Z,102404.43
2018-04-18T22:34:26.375Z,102405.63
2018-04-18T22:36:54.659Z,102399.03
2018-04-18T22:39:22.941Z,102400.48
2018-04-18T22:41:51.192Z,102396.09
2018-04-18T22:44:19.448Z,102398.08
2018-04-18T22:46:47.729Z,102396.95
2018-04-18T22:49:15.980Z,102396.53
2018-04-18T22:51:45.006Z,102393.80
2018-04-18T22:54:13.269Z,102397.40
2018-04-18T22:56:41.524Z,102393.19
2018-04-18T22:59:09.806Z,102398.72
2018-04-18T23:01:38.085Z,102398.38
2018-04-18T23:04:06.452Z,102396.26
2018-04-18T23:06:34.727Z,102392.66
2018-04-18T23:09:03.784Z,102395.16
2018-04-18T23:11:32.052Z,102392.50
2018-04-18T23:14:00.309Z,102390.31
2018-04-18T23:16:28.576Z,102389.83
2018-04-18T23:18:56.836Z,102388.61
2018-04-18T23:21:25.136Z,102397.33
2018-04-18T23:23:53.432Z,102397.69
2018-04-18T23:26:21.684Z,102393.45
2018-04-18T23:28:49.947Z,102391.20
2018-04-18T23:31:19.016Z,102390.05
2018-04-18T23:33:47.255Z,102394.19
2018-04-18T23:36:16.285Z,102396.28
2018-04-18T23:38:44.568Z,102396.75
2018-04-18T23:41:12.835Z,102391.89
2018-04-18T23:43:41.079Z,102392.69
2018-04-18T23:46:09.375Z,102393.37
2018-04-18T23:48:37.629Z,102394.19
2018-04-18T23:51:05.883Z,102389.59
2018-04-18T23:53:34.186Z,102390.04
2018-04-18T23:56:02.559Z,102388.03
2018-04-18T23:58:30.812Z,102390.13
